sensor_id;sensor_type;location;lat;lon;timestamp;temperature;humidity
6439;DHT22;3252;52.540;13.290;2024-02-23T00:01:18;20.00;96.00
6439;DHT22;3252;52.540;13.290;2024-02-23T00:03:20;20.00;96.00
6439;DHT22;3252;52.540;13.290;2024-02-23T00:05:21;20.00;96.00
6439;DHT22;3252;52.540;13.290;2024-02-23T00:07:23;20.00;96.00
6439;DHT22;3252;52.540;13.290;2024-02-23T00:09:25;20.00;96.00
6439;DHT22;3252;52.540;13.290;2024-02-23T00:11:29;20.00;96.00
6439;DHT22;3252;52.540;13.290;2024-02-23T00:13:33;20.00;96.00
6439;DHT22;3252;52.540;13.290;2024-02-23T00:15:34;20.00;96.00
6439;DHT22;3252;52.540;13.290;2024-02-23T00:17:36;20.00;96.20
6439;DHT22;3252;52.540;13.290;2024-02-23T00:19:39;20.00;96.00
6439;DHT22;3252;52.540;13.290;2024-02-23T00:21:41;20.00;96.00
6439;DHT22;3252;52.540;13.290;2024-02-23T00:23:43;20.00;96.20
6439;DHT22;3252;52.540;13.290;2024-02-23T00:25:45;20.00;96.00
6439;DHT22;3252;52.540;13.290;2024-02-23T00:27:48;20.00;96.00
6439;DHT22;3252;52.540;13.290;2024-02-23T00:29:50;20.00;96.00
6439;DHT22;3252;52.540;13.290;2024-02-23T00:31:53;20.00;96.00
6439;DHT22;3252;52.540;13.290;2024-02-23T00:33:54;20.00;96.00
6439;DHT22;3252;52.540;13.290;2024-02-23T00:35:56;20.00;96.00
6439;DHT22;3252;52.540;13.290;2024-02-23T00:37:58;20.00;96.00
6439;DHT22;3252;52.540;13.290;2024-02-23T00:40:00;20.00;95.90
6439;DHT22;3252;52.540;13.290;2024-02-23T00:42:02;20.00;96.00
6439;DHT22;3252;52.540;13.290;2024-02-23T00:44:06;20.00;96.20
6439;DHT22;3252;52.540;13.290;2024-02-23T00:46:08;20.00;96.20
6439;DHT22;3252;52.540;13.290;2024-02-23T00:48:11;20.00;96.00
6439;DHT22;3252;52.540;13.290;2024-02-23T00:50:14;20.00;96.00
6439;DHT22;3252;52.540;13.290;2024-02-23T00:52:16;20.00;96.00
6439;DHT22;3252;52.540;13.290;2024-02-23T00:54:18;20.00;96.30
6439;DHT22;3252;52.540;13.290;2024-02-23T00:56:20;20.00;96.00
6439;DHT22;3252;52.540;13.290;2024-02-23T00:58:22;20.00;96.00
6439;DHT22;3252;52.540;13.290;2024-02-23T01:00:25;20.00;96.00
6439;DHT22;3252;52.540;13.290;2024-02-23T01:02:27;20.00;96.00
6439;DHT22;3252;52.540;13.290;2024-02-23T01:04:29;20.00;96.00
6439;DHT22;3252;52.540;13.290;2024-02-23T01:06:31;20.00;96.00
6439;DHT22;3252;52.540;13.290;2024-02-23T01:08:33;20.00;96.00
6439;DHT22;3252;52.540;13.290;2024-02-23T01:10:36;20.00;96.00
6439;DHT22;3252;52.540;13.290;2024-02-23T01:12:38;20.00;96.00
6439;DHT22;3252;52.540;13.290;2024-02-23T01:14:40;20.00;96.00
6439;DHT22;3252;52.540;13.290;2024-02-23T01:16:44;20.00;96.00
6439;DHT22;3252;52.540;13.290;2024-02-23T01:18:45;20.00;96.00
6439;DHT22;3252;52.540;13.290;2024-02-23T01:20:48;20.00;96.30
6439;DHT22;3252;52.540;13.290;2024-02-23T01:22:50;20.00;96.00
6439;DHT22;3252;52.540;13.290;2024-02-23T01:24:52;19.90;96.00
6439;DHT22;3252;52.540;13.290;2024-02-23T01:26:54;19.90;96.00
6439;DHT22;3252;52.540;13.290;2024-02-23T01:28:56;20.00;96.00
6439;DHT22;3252;52.540;13.290;2024-02-23T01:30:59;19.90;96.00
6439;DHT22;3252;52.540;13.290;2024-02-23T01:33:03;19.90;96.00
6439;DHT22;3252;52.540;13.290;2024-02-23T01:35:06;20.00;96.20
6439;DHT22;3252;52.540;13.290;2024-02-23T01:37:08;19.90;96.00
6439;DHT22;3252;52.540;13.290;2024-02-23T01:39:10;19.90;96.00
6439;DHT22;3252;52.540;13.290;2024-02-23T01:41:12;19.90;96.00
6439;DHT22;3252;52.540;13.290;2024-02-23T01:43:14;19.90;96.00
6439;DHT22;3252;52.540;13.290;2024-02-23T01:45:16;19.90;96.00
6439;DHT22;3252;52.540;13.290;2024-02-23T01:47:18;20.00;96.00
6439;DHT22;3252;52.540;13.290;2024-02-23T01:49:21;19.90;96.00
6439;DHT22;3252;52.540;13.290;2024-02-23T01:51:31;19.90;96.00
6439;DHT22;3252;52.540;13.290;2024-02-23T01:53:34;20.00;96.00
6439;DHT22;3252;52.540;13.290;2024-02-23T01:55:36;19.90;96.00
6439;DHT22;3252;52.540;13.290;2024-02-23T01:57:39;19.90;96.00
6439;DHT22;3252;52.540;13.290;2024-02-23T01:59:41;19.90;96.00
6439;DHT22;3252;52.540;13.290;2024-02-23T02:01:43;19.90;96.00
6439;DHT22;3252;52.540;13.290;2024-02-23T02:03:46;19.90;96.00
6439;DHT22;3252;52.540;13.290;2024-02-23T02:05:50;19.90;96.00
6439;DHT22;3252;52.540;13.290;2024-02-23T02:07:53;19.90;96.00
6439;DHT22;3252;52.540;13.290;2024-02-23T02:09:59;19.90;96.00
6439;DHT22;3252;52.540;13.290;2024-02-23T02:12:01;19.90;96.00
6439;DHT22;3252;52.540;13.290;2024-02-23T02:14:03;19.90;96.00
6439;DHT22;3252;52.540;13.290;2024-02-23T02:16:06;19.90;96.00
6439;DHT22;3252;52.540;13.290;2024-02-23T02:18:07;19.90;96.00
6439;DHT22;3252;52.540;13.290;2024-02-23T02:20:11;19.90;96.00
6439;DHT22;3252;52.540;13.290;2024-02-23T02:22:15;19.90;96.00
6439;DHT22;3252;52.540;13.290;2024-02-23T02:24:17;19.90;96.00
6439;DHT22;3252;52.540;13.290;2024-02-23T02:26:19;20.00;96.00
6439;DHT22;3252;52.540;13.290;2024-02-23T02:28:22;19.90;96.00
6439;DHT22;3252;52.540;13.290;2024-02-23T02:30:23;19.90;96.00
6439;DHT22;3252;52.540;13.290;2024-02-23T02:32:25;19.90;96.00
6439;DHT22;3252;52.540;13.290;2024-02-23T02:34:26;19.90;96.00
6439;DHT22;3252;52.540;13.290;2024-02-23T02:36:29;19.90;96.00
6439;DHT22;3252;52.540;13.290;2024-02-23T02:38:31;19.90;96.00
6439;DHT22;3252;52.540;13.290;2024-02-23T02:40:35;19.90;96.00
6439;DHT22;3252;52.540;13.290;2024-02-23T02:42:37;19.90;96.00
6439;DHT22;3252;52.540;13.290;2024-02-23T02:44:39;19.90;96.00
6439;DHT22;3252;52.540;13.290;2024-02-23T02:46:41;19.90;96.00
6439;DHT22;3252;52.540;13.290;2024-02-23T02:48:43;19.90;96.00
6439;DHT22;3252;52.540;13.290;2024-02-23T02:50:45;19.90;96.00
6439;DHT22;3252;52.540;13.290;2024-02-23T02:52:47;19.90;96.00
6439;DHT22;3252;52.540;13.290;2024-02-23T02:54:51;19.90;96.00
6439;DHT22;3252;52.540;13.290;2024-02-23T02:56:53;19.90;96.00
6439;DHT22;3252;52.540;13.290;2024-02-23T02:58:56;19.90;96.00
6439;DHT22;3252;52.540;13.290;2024-02-23T03:00:57;19.90;96.00
6439;DHT22;3252;52.540;13.290;2024-02-23T03:02:59;19.90;96.00
6439;DHT22;3252;52.540;13.290;2024-02-23T03:05:01;19.90;96.00
6439;DHT22;3252;52.540;13.290;2024-02-23T03:07:02;19.90;96.00
6439;DHT22;3252;52.540;13.290;2024-02-23T03:09:05;19.90;96.00
6439;DHT22;3252;52.540;13.290;2024-02-23T03:11:09;19.90;96.00
6439;DHT22;3252;52.540;13.290;2024-02-23T03:13:12;19.90;96.00
6439;DHT22;3252;52.540;13.290;2024-02-23T03:15:15;19.90;96.00
6439;DHT22;3252;52.540;13.290;2024-02-23T03:17:17;19.90;96.00
6439;DHT22;3252;52.540;13.290;2024-02-23T03:19:19;19.90;96.00
6439;DHT22;3252;52.540;13.290;2024-02-23T03:21:23;19.90;96.00
6439;DHT22;3252;52.540;13.290;2024-02-23T03:23:25;19.90;96.00
6439;DHT22;3252;52.540;13.290;2024-02-23T03:25:27;19.90;96.00
6439;DHT22;3252;52.540;13.290;2024-02-23T03:27:30;19.90;96.00
6439;DHT22;3252;52.540;13.290;2024-02-23T03:29:32;19.90;96.00
6439;DHT22;3252;52.540;13.290;2024-02-23T03:31:34;19.90;96.10
6439;DHT22;3252;52.540;13.290;2024-02-23T03:33:36;19.80;96.00
6439;DHT22;3252;52.540;13.290;2024-02-23T03:35:39;19.80;96.00
6439;DHT22;3252;52.540;13.290;2024-02-23T03:37:41;19.80;96.00
6439;DHT22;3252;52.540;13.290;2024-02-23T03:39:43;19.90;96.10
6439;DHT22;3252;52.540;13.290;2024-02-23T03:41:44;19.80;96.00
6439;DHT22;3252;52.540;13.290;2024-02-23T03:43:47;19.80;96.10
6439;DHT22;3252;52.540;13.290;2024-02-23T03:45:50;19.80;96.10
6439;DHT22;3252;52.540;13.290;2024-02-23T03:47:51;19.80;96.10
6439;DHT22;3252;52.540;13.290;2024-02-23T03:49:53;19.80;96.10
6439;DHT22;3252;52.540;13.290;2024-02-23T03:51:55;19.80;96.10
6439;DHT22;3252;52.540;13.290;2024-02-23T03:53:57;19.80;96.10
6439;DHT22;3252;52.540;13.290;2024-02-23T03:55:59;19.80;96.20
6439;DHT22;3252;52.540;13.290;2024-02-23T03:58:01;19.80;96.10
6439;DHT22;3252;52.540;13.290;2024-02-23T04:00:05;19.80;96.10
6439;DHT22;3252;52.540;13.290;2024-02-23T04:02:16;19.80;96.20
6439;DHT22;3252;52.540;13.290;2024-02-23T04:04:18;19.80;96.20
6439;DHT22;3252;52.540;13.290;2024-02-23T04:06:20;19.80;96.20
6439;DHT22;3252;52.540;13.290;2024-02-23T04:08:21;19.80;96.20
6439;DHT22;3252;52.540;13.290;2024-02-23T04:10:23;19.80;96.20
6439;DHT22;3252;52.540;13.290;2024-02-23T04:12:25;19.80;96.20
6439;DHT22;3252;52.540;13.290;2024-02-23T04:14:27;19.80;96.50
6439;DHT22;3252;52.540;13.290;2024-02-23T04:16:31;19.80;96.50
6439;DHT22;3252;52.540;13.290;2024-02-23T04:18:33;19.80;96.20
6439;DHT22;3252;52.540;13.290;2024-02-23T04:20:34;19.80;96.20
6439;DHT22;3252;52.540;13.290;2024-02-23T04:22:36;19.80;96.20
6439;DHT22;3252;52.540;13.290;2024-02-23T04:24:40;19.80;96.20
6439;DHT22;3252;52.540;13.290;2024-02-23T04:26:42;19.90;96.40
6439;DHT22;3252;52.540;13.290;2024-02-23T04:28:43;20.00;96.00
6439;DHT22;3252;52.540;13.290;2024-02-23T04:30:45;20.10;95.90
6439;DHT22;3252;52.540;13.290;2024-02-23T04:32:48;20.20;95.80
6439;DHT22;3252;52.540;13.290;2024-02-23T04:34:50;20.20;95.60
6439;DHT22;3252;52.540;13.290;2024-02-23T04:36:52;20.30;95.60
6439;DHT22;3252;52.540;13.290;2024-02-23T04:38:54;20.40;95.50
6439;DHT22;3252;52.540;13.290;2024-02-23T04:40:57;20.40;95.40
6439;DHT22;3252;52.540;13.290;2024-02-23T04:43:00;20.50;95.30
6439;DHT22;3252;52.540;13.290;2024-02-23T04:45:02;20.50;95.30
6439;DHT22;3252;52.540;13.290;2024-02-23T04:47:05;20.50;95.20
6439;DHT22;3252;52.540;13.290;2024-02-23T04:49:08;20.60;95.20
6439;DHT22;3252;52.540;13.290;2024-02-23T04:51:12;20.60;95.20
6439;DHT22;3252;52.540;13.290;2024-02-23T04:53:14;20.60;95.10
6439;DHT22;3252;52.540;13.290;2024-02-23T04:55:17;20.70;95.10
6439;DHT22;3252;52.540;13.290;2024-02-23T04:57:19;20.70;95.00
6439;DHT22;3252;52.540;13.290;2024-02-23T04:59:20;20.80;94.90
6439;DHT22;3252;52.540;13.290;2024-02-23T05:01:22;20.90;94.80
6439;DHT22;3252;52.540;13.290;2024-02-23T05:03:24;21.00;94.70
6439;DHT22;3252;52.540;13.290;2024-02-23T05:05:28;21.00;94.60
6439;DHT22;3252;52.540;13.290;2024-02-23T05:07:31;21.10;94.50
6439;DHT22;3252;52.540;13.290;2024-02-23T05:09:33;21.10;94.40
6439;DHT22;3252;52.540;13.290;2024-02-23T05:11:35;21.20;94.40
6439;DHT22;3252;52.540;13.290;2024-02-23T05:13:38;21.20;94.30
6439;DHT22;3252;52.540;13.290;2024-02-23T05:15:42;21.20;94.30
6439;DHT22;3252;52.540;13.290;2024-02-23T05:17:44;21.20;94.20
6439;DHT22;3252;52.540;13.290;2024-02-23T05:19:46;21.20;94.20
6439;DHT22;3252;52.540;13.290;2024-02-23T05:21:49;21.20;94.20
6439;DHT22;3252;52.540;13.290;2024-02-23T05:23:51;21.20;94.20
6439;DHT22;3252;52.540;13.290;2024-02-23T05:25:53;21.20;94.20
6439;DHT22;3252;52.540;13.290;2024-02-23T05:27:55;21.20;94.30
6439;DHT22;3252;52.540;13.290;2024-02-23T05:29:57;21.20;94.30
6439;DHT22;3252;52.540;13.290;2024-02-23T05:31:59;21.20;94.40
6439;DHT22;3252;52.540;13.290;2024-02-23T05:34:02;21.20;94.30
6439;DHT22;3252;52.540;13.290;2024-02-23T05:36:04;21.30;94.30
6439;DHT22;3252;52.540;13.290;2024-02-23T05:38:07;21.30;94.20
6439;DHT22;3252;52.540;13.290;2024-02-23T05:40:10;21.40;94.20
6439;DHT22;3252;52.540;13.290;2024-02-23T05:42:12;21.40;94.10
6439;DHT22;3252;52.540;13.290;2024-02-23T05:44:14;21.40;94.10
6439;DHT22;3252;52.540;13.290;2024-02-23T05:46:16;21.40;94.10
6439;DHT22;3252;52.540;13.290;2024-02-23T05:48:18;21.40;94.00
6439;DHT22;3252;52.540;13.290;2024-02-23T05:50:21;21.40;94.10
6439;DHT22;3252;52.540;13.290;2024-02-23T05:52:23;21.50;94.10
6439;DHT22;3252;52.540;13.290;2024-02-23T05:54:26;21.50;94.10
6439;DHT22;3252;52.540;13.290;2024-02-23T05:56:29;21.50;94.10
6439;DHT22;3252;52.540;13.290;2024-02-23T05:58:31;21.50;94.00
6439;DHT22;3252;52.540;13.290;2024-02-23T06:00:33;21.60;93.90
6439;DHT22;3252;52.540;13.290;2024-02-23T06:02:35;21.60;93.90
6439;DHT22;3252;52.540;13.290;2024-02-23T06:04:37;21.60;93.90
6439;DHT22;3252;52.540;13.290;2024-02-23T06:06:41;21.60;93.90
6439;DHT22;3252;52.540;13.290;2024-02-23T06:08:44;21.60;93.90
6439;DHT22;3252;52.540;13.290;2024-02-23T06:10:48;21.60;94.20
6439;DHT22;3252;52.540;13.290;2024-02-23T06:12:50;21.60;93.90
6439;DHT22;3252;52.540;13.290;2024-02-23T06:14:52;21.60;93.90
6439;DHT22;3252;52.540;13.290;2024-02-23T06:16:56;21.60;94.00
6439;DHT22;3252;52.540;13.290;2024-02-23T06:18:57;21.50;93.90
6439;DHT22;3252;52.540;13.290;2024-02-23T06:20:59;21.50;94.00
6439;DHT22;3252;52.540;13.290;2024-02-23T06:23:01;21.50;94.00
6439;DHT22;3252;52.540;13.290;2024-02-23T06:25:04;21.50;94.10
6439;DHT22;3252;52.540;13.290;2024-02-23T06:27:07;21.50;94.10
6439;DHT22;3252;52.540;13.290;2024-02-23T06:29:10;21.50;94.10
6439;DHT22;3252;52.540;13.290;2024-02-23T06:31:13;21.50;94.10
6439;DHT22;3252;52.540;13.290;2024-02-23T06:33:15;21.40;94.10
6439;DHT22;3252;52.540;13.290;2024-02-23T06:35:17;21.40;94.10
6439;DHT22;3252;52.540;13.290;2024-02-23T06:37:19;21.40;94.20
6439;DHT22;3252;52.540;13.290;2024-02-23T06:39:22;21.40;94.30
6439;DHT22;3252;52.540;13.290;2024-02-23T06:41:24;21.40;94.70
6439;DHT22;3252;52.540;13.290;2024-02-23T06:43:26;21.40;95.20
6439;DHT22;3252;52.540;13.290;2024-02-23T06:45:28;21.40;95.50
6439;DHT22;3252;52.540;13.290;2024-02-23T06:47:30;21.30;95.60
6439;DHT22;3252;52.540;13.290;2024-02-23T06:49:32;21.40;95.80
6439;DHT22;3252;52.540;13.290;2024-02-23T06:51:34;21.50;95.80
6439;DHT22;3252;52.540;13.290;2024-02-23T06:53:36;21.60;95.80
6439;DHT22;3252;52.540;13.290;2024-02-23T06:55:38;21.70;95.70
6439;DHT22;3252;52.540;13.290;2024-02-23T06:57:40;21.90;95.50
6439;DHT22;3252;52.540;13.290;2024-02-23T06:59:44;22.10;95.30
6439;DHT22;3252;52.540;13.290;2024-02-23T07:01:49;22.20;95.20
6439;DHT22;3252;52.540;13.290;2024-02-23T07:03:52;22.30;95.30
6439;DHT22;3252;52.540;13.290;2024-02-23T07:05:53;22.40;95.20
6439;DHT22;3252;52.540;13.290;2024-02-23T07:07:56;22.50;95.30
6439;DHT22;3252;52.540;13.290;2024-02-23T07:09:57;22.50;95.20
6439;DHT22;3252;52.540;13.290;2024-02-23T07:11:59;22.50;95.10
6439;DHT22;3252;52.540;13.290;2024-02-23T07:14:01;22.50;95.10
6439;DHT22;3252;52.540;13.290;2024-02-23T07:16:06;22.50;95.10
6439;DHT22;3252;52.540;13.290;2024-02-23T07:18:08;22.50;95.20
6439;DHT22;3252;52.540;13.290;2024-02-23T07:20:11;22.50;95.20
6439;DHT22;3252;52.540;13.290;2024-02-23T07:22:13;22.50;95.20
6439;DHT22;3252;52.540;13.290;2024-02-23T07:24:16;22.40;95.10
6439;DHT22;3252;52.540;13.290;2024-02-23T07:26:18;22.40;95.20
6439;DHT22;3252;52.540;13.290;2024-02-23T07:28:22;22.40;95.20
6439;DHT22;3252;52.540;13.290;2024-02-23T07:30:24;22.40;95.20
6439;DHT22;3252;52.540;13.290;2024-02-23T07:32:28;22.30;95.20
6439;DHT22;3252;52.540;13.290;2024-02-23T07:34:31;22.30;95.20
6439;DHT22;3252;52.540;13.290;2024-02-23T07:36:33;22.30;95.20
6439;DHT22;3252;52.540;13.290;2024-02-23T07:38:35;22.30;95.30
6439;DHT22;3252;52.540;13.290;2024-02-23T07:40:36;22.30;95.30
6439;DHT22;3252;52.540;13.290;2024-02-23T07:42:39;22.30;95.30
6439;DHT22;3252;52.540;13.290;2024-02-23T07:44:40;22.30;95.20
6439;DHT22;3252;52.540;13.290;2024-02-23T07:46:43;22.20;95.30
6439;DHT22;3252;52.540;13.290;2024-02-23T07:48:46;22.20;95.60
6439;DHT22;3252;52.540;13.290;2024-02-23T07:50:49;22.30;95.40
6439;DHT22;3252;52.540;13.290;2024-02-23T07:52:51;22.20;95.30
6439;DHT22;3252;52.540;13.290;2024-02-23T07:54:53;22.20;95.40
6439;DHT22;3252;52.540;13.290;2024-02-23T07:56:55;22.30;95.40
6439;DHT22;3252;52.540;13.290;2024-02-23T07:58:58;22.30;95.60
6439;DHT22;3252;52.540;13.290;2024-02-23T08:01:00;22.30;95.40
6439;DHT22;3252;52.540;13.290;2024-02-23T08:03:02;22.40;95.50
6439;DHT22;3252;52.540;13.290;2024-02-23T08:05:07;22.40;95.50
6439;DHT22;3252;52.540;13.290;2024-02-23T08:07:09;22.50;95.40
6439;DHT22;3252;52.540;13.290;2024-02-23T08:09:12;22.60;95.40
6439;DHT22;3252;52.540;13.290;2024-02-23T08:11:14;22.60;95.30
6439;DHT22;3252;52.540;13.290;2024-02-23T08:13:17;22.70;95.30
6439;DHT22;3252;52.540;13.290;2024-02-23T08:15:19;22.70;95.20
6439;DHT22;3252;52.540;13.290;2024-02-23T08:17:21;22.80;95.30
6439;DHT22;3252;52.540;13.290;2024-02-23T08:19:23;22.80;95.20
6439;DHT22;3252;52.540;13.290;2024-02-23T08:21:27;22.90;95.20
6439;DHT22;3252;52.540;13.290;2024-02-23T08:23:29;22.90;95.10
6439;DHT22;3252;52.540;13.290;2024-02-23T08:25:31;22.90;95.10
6439;DHT22;3252;52.540;13.290;2024-02-23T08:27:33;22.90;95.10
6439;DHT22;3252;52.540;13.290;2024-02-23T08:29:37;22.90;95.00
6439;DHT22;3252;52.540;13.290;2024-02-23T08:31:42;22.90;95.10
6439;DHT22;3252;52.540;13.290;2024-02-23T08:37:05;22.90;94.50
6439;DHT22;3252;52.540;13.290;2024-02-23T08:39:07;22.90;94.00
6439;DHT22;3252;52.540;13.290;2024-02-23T08:41:09;23.00;93.70
6439;DHT22;3252;52.540;13.290;2024-02-23T08:43:13;23.00;93.50
6439;DHT22;3252;52.540;13.290;2024-02-23T08:45:15;23.10;93.40
6439;DHT22;3252;52.540;13.290;2024-02-23T08:47:17;23.20;93.10
6439;DHT22;3252;52.540;13.290;2024-02-23T08:49:19;23.20;92.80
6439;DHT22;3252;52.540;13.290;2024-02-23T08:51:20;23.30;93.30
6439;DHT22;3252;52.540;13.290;2024-02-23T08:53:24;23.30;91.00
6439;DHT22;3252;52.540;13.290;2024-02-23T08:55:26;23.30;90.00
6439;DHT22;3252;52.540;13.290;2024-02-23T08:57:29;23.40;91.00
6439;DHT22;3252;52.540;13.290;2024-02-23T08:59:31;23.40;91.10
6439;DHT22;3252;52.540;13.290;2024-02-23T09:01:33;23.40;91.20
6439;DHT22;3252;52.540;13.290;2024-02-23T09:03:35;23.50;91.30
6439;DHT22;3252;52.540;13.290;2024-02-23T09:05:37;23.50;91.20
6439;DHT22;3252;52.540;13.290;2024-02-23T09:07:39;23.60;91.30
6439;DHT22;3252;52.540;13.290;2024-02-23T09:09:42;23.60;91.10
6439;DHT22;3252;52.540;13.290;2024-02-23T09:11:45;23.70;91.10
6439;DHT22;3252;52.540;13.290;2024-02-23T09:13:47;23.70;91.40
6439;DHT22;3252;52.540;13.290;2024-02-23T09:15:49;23.80;91.00
6439;DHT22;3252;52.540;13.290;2024-02-23T09:17:52;23.90;90.90
6439;DHT22;3252;52.540;13.290;2024-02-23T09:19:54;23.90;90.80
6439;DHT22;3252;52.540;13.290;2024-02-23T09:21:57;23.90;90.90
6439;DHT22;3252;52.540;13.290;2024-02-23T09:24:01;24.00;91.00
6439;DHT22;3252;52.540;13.290;2024-02-23T09:26:08;24.00;90.70
6439;DHT22;3252;52.540;13.290;2024-02-23T09:28:11;24.00;90.60
6439;DHT22;3252;52.540;13.290;2024-02-23T09:30:13;24.00;90.60
6439;DHT22;3252;52.540;13.290;2024-02-23T09:32:16;24.10;90.20
6439;DHT22;3252;52.540;13.290;2024-02-23T09:34:18;24.10;90.20
6439;DHT22;3252;52.540;13.290;2024-02-23T09:36:20;24.10;91.00
6439;DHT22;3252;52.540;13.290;2024-02-23T09:38:22;24.10;90.90
6439;DHT22;3252;52.540;13.290;2024-02-23T09:40:25;24.20;91.00
6439;DHT22;3252;52.540;13.290;2024-02-23T09:42:29;24.20;91.20
6439;DHT22;3252;52.540;13.290;2024-02-23T09:44:33;24.20;90.90
6439;DHT22;3252;52.540;13.290;2024-02-23T09:46:36;24.30;90.50
6439;DHT22;3252;52.540;13.290;2024-02-23T09:48:39;24.30;91.00
6439;DHT22;3252;52.540;13.290;2024-02-23T09:50:42;24.30;91.00
6439;DHT22;3252;52.540;13.290;2024-02-23T09:52:45;24.30;90.80
6439;DHT22;3252;52.540;13.290;2024-02-23T09:54:47;24.40;90.40
6439;DHT22;3252;52.540;13.290;2024-02-23T09:56:51;24.40;90.80
6439;DHT22;3252;52.540;13.290;2024-02-23T09:58:56;24.50;90.80
6439;DHT22;3252;52.540;13.290;2024-02-23T10:00:59;24.50;91.00
6439;DHT22;3252;52.540;13.290;2024-02-23T10:03:02;24.50;90.80
6439;DHT22;3252;52.540;13.290;2024-02-23T10:05:07;24.60;90.70
6439;DHT22;3252;52.540;13.290;2024-02-23T10:07:09;24.60;90.70
6439;DHT22;3252;52.540;13.290;2024-02-23T10:09:12;24.60;90.80
6439;DHT22;3252;52.540;13.290;2024-02-23T10:11:13;24.60;90.50
6439;DHT22;3252;52.540;13.290;2024-02-23T10:13:18;24.60;90.90
6439;DHT22;3252;52.540;13.290;2024-02-23T10:15:21;24.60;90.90
6439;DHT22;3252;52.540;13.290;2024-02-23T10:17:23;24.70;90.90
6439;DHT22;3252;52.540;13.290;2024-02-23T10:19:25;24.70;90.60
6439;DHT22;3252;52.540;13.290;2024-02-23T10:21:29;24.70;90.20
6439;DHT22;3252;52.540;13.290;2024-02-23T10:23:31;24.70;90.20
6439;DHT22;3252;52.540;13.290;2024-02-23T10:25:34;24.70;88.60
6439;DHT22;3252;52.540;13.290;2024-02-23T10:27:36;24.70;89.70
6439;DHT22;3252;52.540;13.290;2024-02-23T10:29:38;24.70;89.50
6439;DHT22;3252;52.540;13.290;2024-02-23T10:31:42;24.70;89.20
6439;DHT22;3252;52.540;13.290;2024-02-23T10:33:48;24.70;88.80
6439;DHT22;3252;52.540;13.290;2024-02-23T10:35:56;24.60;88.50
6439;DHT22;3252;52.540;13.290;2024-02-23T10:37:59;24.70;89.50
6439;DHT22;3252;52.540;13.290;2024-02-23T10:40:01;24.70;89.10
6439;DHT22;3252;52.540;13.290;2024-02-23T10:42:08;24.80;88.50
6439;DHT22;3252;52.540;13.290;2024-02-23T10:44:11;24.90;89.00
6439;DHT22;3252;52.540;13.290;2024-02-23T10:46:14;24.80;88.10
6439;DHT22;3252;52.540;13.290;2024-02-23T10:48:18;24.80;88.50
6439;DHT22;3252;52.540;13.290;2024-02-23T10:50:20;24.80;89.00
6439;DHT22;3252;52.540;13.290;2024-02-23T10:52:24;24.80;89.80
6439;DHT22;3252;52.540;13.290;2024-02-23T10:54:27;24.80;89.80
6439;DHT22;3252;52.540;13.290;2024-02-23T10:56:29;24.70;90.00
6439;DHT22;3252;52.540;13.290;2024-02-23T10:58:32;24.70;90.20
6439;DHT22;3252;52.540;13.290;2024-02-23T11:00:34;24.80;90.30
6439;DHT22;3252;52.540;13.290;2024-02-23T11:02:45;24.80;90.40
6439;DHT22;3252;52.540;13.290;2024-02-23T11:04:50;24.70;90.50
6439;DHT22;3252;52.540;13.290;2024-02-23T11:06:53;24.70;89.50
6439;DHT22;3252;52.540;13.290;2024-02-23T11:09:05;24.60;73.00
6439;DHT22;3252;52.540;13.290;2024-02-23T11:11:08;24.40;56.70
6439;DHT22;3252;52.540;13.290;2024-02-23T11:13:10;24.20;53.40
6439;DHT22;3252;52.540;13.290;2024-02-23T11:15:26;24.20;58.00
6439;DHT22;3252;52.540;13.290;2024-02-23T11:17:30;24.10;64.20
6439;DHT22;3252;52.540;13.290;2024-02-23T11:19:34;24.10;68.50
6439;DHT22;3252;52.540;13.290;2024-02-23T11:21:38;24.10;69.90
6439;DHT22;3252;52.540;13.290;2024-02-23T11:23:41;24.10;72.50
6439;DHT22;3252;52.540;13.290;2024-02-23T11:25:57;24.10;74.40
6439;DHT22;3252;52.540;13.290;2024-02-23T11:28:00;24.10;76.60
6439;DHT22;3252;52.540;13.290;2024-02-23T11:30:03;24.10;78.40
6439;DHT22;3252;52.540;13.290;2024-02-23T11:32:13;24.20;78.80
6439;DHT22;3252;52.540;13.290;2024-02-23T11:34:21;24.20;79.60
6439;DHT22;3252;52.540;13.290;2024-02-23T11:36:28;24.20;80.60
6439;DHT22;3252;52.540;13.290;2024-02-23T11:38:32;24.20;81.20
6439;DHT22;3252;52.540;13.290;2024-02-23T11:40:35;24.20;81.70
6439;DHT22;3252;52.540;13.290;2024-02-23T11:42:37;24.20;82.20
6439;DHT22;3252;52.540;13.290;2024-02-23T11:44:39;24.20;81.30
6439;DHT22;3252;52.540;13.290;2024-02-23T11:46:41;24.20;81.10
6439;DHT22;3252;52.540;13.290;2024-02-23T11:48:43;24.20;81.40
6439;DHT22;3252;52.540;13.290;2024-02-23T11:50:45;24.20;81.10
6439;DHT22;3252;52.540;13.290;2024-02-23T11:52:49;24.20;81.40
6439;DHT22;3252;52.540;13.290;2024-02-23T11:54:53;24.20;81.50
6439;DHT22;3252;52.540;13.290;2024-02-23T11:56:54;24.20;82.20
6439;DHT22;3252;52.540;13.290;2024-02-23T11:58:57;24.20;81.80
6439;DHT22;3252;52.540;13.290;2024-02-23T12:00:58;24.20;82.40
6439;DHT22;3252;52.540;13.290;2024-02-23T12:03:03;24.20;82.80
6439;DHT22;3252;52.540;13.290;2024-02-23T12:05:06;24.20;82.50
6439;DHT22;3252;52.540;13.290;2024-02-23T12:07:09;24.20;82.10
6439;DHT22;3252;52.540;13.290;2024-02-23T12:09:11;24.20;82.40
6439;DHT22;3252;52.540;13.290;2024-02-23T12:11:16;24.20;82.90
6439;DHT22;3252;52.540;13.290;2024-02-23T12:13:17;24.20;82.70
6439;DHT22;3252;52.540;13.290;2024-02-23T12:15:19;24.20;83.10
6439;DHT22;3252;52.540;13.290;2024-02-23T12:17:20;24.20;82.20
6439;DHT22;3252;52.540;13.290;2024-02-23T12:19:23;24.20;81.50
6439;DHT22;3252;52.540;13.290;2024-02-23T12:21:25;24.20;81.60
6439;DHT22;3252;52.540;13.290;2024-02-23T12:23:27;24.20;81.50
6439;DHT22;3252;52.540;13.290;2024-02-23T12:25:39;24.20;81.80
6439;DHT22;3252;52.540;13.290;2024-02-23T12:27:41;24.20;81.60
6439;DHT22;3252;52.540;13.290;2024-02-23T12:29:51;24.20;81.40
6439;DHT22;3252;52.540;13.290;2024-02-23T12:32:03;24.20;82.30
6439;DHT22;3252;52.540;13.290;2024-02-23T12:34:05;24.20;81.40
6439;DHT22;3252;52.540;13.290;2024-02-23T12:36:08;24.20;81.20
6439;DHT22;3252;52.540;13.290;2024-02-23T12:38:12;24.10;80.70
6439;DHT22;3252;52.540;13.290;2024-02-23T12:40:14;24.10;81.10
6439;DHT22;3252;52.540;13.290;2024-02-23T12:42:17;24.20;81.80
6439;DHT22;3252;52.540;13.290;2024-02-23T12:44:20;24.10;82.90
6439;DHT22;3252;52.540;13.290;2024-02-23T12:46:23;24.10;83.70
6439;DHT22;3252;52.540;13.290;2024-02-23T12:48:25;24.20;84.10
6439;DHT22;3252;52.540;13.290;2024-02-23T12:50:30;24.10;84.60
6439;DHT22;3252;52.540;13.290;2024-02-23T12:52:32;24.10;84.10
6439;DHT22;3252;52.540;13.290;2024-02-23T12:54:34;24.10;83.70
6439;DHT22;3252;52.540;13.290;2024-02-23T12:56:36;24.10;84.90
6439;DHT22;3252;52.540;13.290;2024-02-23T12:58:40;24.10;83.60
6439;DHT22;3252;52.540;13.290;2024-02-23T13:00:43;24.10;82.60
6439;DHT22;3252;52.540;13.290;2024-02-23T13:02:45;24.10;82.40
6439;DHT22;3252;52.540;13.290;2024-02-23T13:04:48;24.10;82.60
6439;DHT22;3252;52.540;13.290;2024-02-23T13:06:50;24.00;82.90
6439;DHT22;3252;52.540;13.290;2024-02-23T13:08:54;24.00;77.10
6439;DHT22;3252;52.540;13.290;2024-02-23T13:10:57;24.00;63.20